Time;durP1;ratioP1;P1;durP2;ratioP2;P2;SDS_P1;SDS_P2;PMS_P1;PMS_P2;Temp;Humidity;BMP_temperature;BMP_pressure;BME280_temperature;BME280_humidity;BME280_pressure;Samples;Min_cycle;Max_cycle;Signal;HPM_P1;HPM_P2
2021/05/28 00:01:04;;;;;;;9.60;4.95;;;6.60;99.90;;;;;;5015336;28;20112;-84
2021/05/28 00:03:30;;;;;;;11.57;5.70;;;6.70;99.90;;;;;;5030871;28;20125;-84
2021/05/28 00:05:56;;;;;;;14.77;4.88;;;6.80;99.90;;;;;;5014688;28;20081;-84
2021/05/28 00:08:21;;;;;;;13.82;4.90;;;6.80;99.90;;;;;;5014072;28;20034;-84
2021/05/28 00:10:47;;;;;;;8.55;4.50;;;6.90;99.90;;;;;;5014010;28;20037;-84
2021/05/28 00:13:13;;;;;;;9.25;4.72;;;7.00;99.90;;;;;;5013927;28;20501;-85
2021/05/28 00:15:40;;;;;;;7.05;4.63;;;7.00;99.90;;;;;;5013903;28;20050;-84
2021/05/28 00:18:06;;;;;;;5.18;3.75;;;7.00;99.90;;;;;;5015225;28;20064;-85
2021/05/28 00:20:31;;;;;;;9.15;4.43;;;7.00;99.90;;;;;;5014936;28;20029;-85
2021/05/28 00:22:57;;;;;;;7.22;4.40;;;7.10;99.90;;;;;;5015023;28;20037;-84
2021/05/28 00:25:22;;;;;;;7.47;4.90;;;7.10;99.90;;;;;;5014886;28;20368;-84
2021/05/28 00:27:48;;;;;;;12.25;4.97;;;7.20;99.90;;;;;;5014980;28;20026;-84
2021/05/28 00:30:14;;;;;;;9.70;5.85;;;7.20;99.90;;;;;;5014739;28;20376;-84
2021/05/28 00:32:39;;;;;;;8.60;4.57;;;7.30;99.90;;;;;;5014929;28;20467;-84
2021/05/28 00:35:06;;;;;;;14.27;6.45;;;7.30;99.90;;;;;;5013248;28;20153;-85
2021/05/28 00:37:31;;;;;;;10.48;5.15;;;7.40;99.90;;;;;;5013277;28;20080;-84
2021/05/28 00:39:57;;;;;;;10.88;5.70;;;7.40;99.90;;;;;;5014858;28;20112;-84
2021/05/28 00:42:23;;;;;;;10.65;6.28;;;7.40;99.90;;;;;;5014544;28;20030;-84
2021/05/28 00:44:48;;;;;;;14.85;6.50;;;7.50;99.90;;;;;;5014553;28;20096;-84
2021/05/28 00:47:14;;;;;;;9.40;5.45;;;7.50;99.90;;;;;;5012248;28;20595;-85
2021/05/28 00:49:39;;;;;;;11.52;6.25;;;7.50;99.90;;;;;;5013137;28;20041;-84
2021/05/28 00:52:05;;;;;;;17.25;8.00;;;7.60;99.90;;;;;;5013068;28;20022;-85
2021/05/28 00:54:32;;;;;;;12.40;6.45;;;7.60;99.90;;;;;;5014403;28;20053;-84
2021/05/28 00:56:58;;;;;;;13.45;6.68;;;7.60;99.90;;;;;;5013266;28;20017;-84
2021/05/28 00:59:24;;;;;;;16.95;6.82;;;7.60;99.90;;;;;;5014360;28;20538;-84
2021/05/28 01:01:51;;;;;;;11.85;6.78;;;7.60;99.90;;;;;;5014190;28;20030;-85
2021/05/28 01:04:17;;;;;;;16.55;8.18;;;7.70;99.90;;;;;;5012678;28;20092;-85
2021/05/28 01:06:43;;;;;;;18.20;7.25;;;7.80;99.90;;;;;;5012645;28;20034;-84
2021/05/28 01:09:09;;;;;;;14.45;7.45;;;7.80;99.90;;;;;;5013864;28;20029;-85
2021/05/28 01:11:36;;;;;;;18.38;8.73;;;7.90;99.90;;;;;;5029414;28;20030;-85
2021/05/28 01:14:03;;;;;;;18.42;8.27;;;7.90;99.90;;;;;;5012724;28;20044;-84
2021/05/28 01:16:28;;;;;;;22.40;8.32;;;7.90;99.90;;;;;;5012872;28;20026;-84
2021/05/28 01:18:54;;;;;;;21.52;8.50;;;7.90;99.90;;;;;;5012634;28;20030;-84
2021/05/28 01:21:20;;;;;;;15.82;8.05;;;7.90;99.90;;;;;;5012535;28;20029;-84
2021/05/28 01:23:47;;;;;;;17.15;8.80;;;7.90;99.90;;;;;;5012744;28;20030;-85
2021/05/28 01:26:12;;;;;;;19.80;8.85;;;8.00;99.90;;;;;;5012609;28;20022;-84
2021/05/28 01:28:38;;;;;;;18.25;10.02;;;8.00;99.90;;;;;;5012398;28;20029;-83
2021/05/28 01:31:04;;;;;;;26.42;10.02;;;8.00;99.90;;;;;;5012514;28;20471;-84
2021/05/28 01:33:30;;;;;;;21.42;10.65;;;8.00;99.90;;;;;;5013525;28;20104;-83
2021/05/28 01:35:58;;;;;;;26.13;10.00;;;8.10;99.90;;;;;;5011521;28;20026;-85
2021/05/28 01:38:24;;;;;;;21.73;10.05;;;8.20;99.90;;;;;;5012563;28;20052;-84
2021/05/28 01:40:50;;;;;;;26.23;9.65;;;8.20;99.90;;;;;;5012412;28;20026;-85
2021/05/28 01:43:16;;;;;;;27.30;10.60;;;8.20;99.90;;;;;;5013632;28;20033;-85
2021/05/28 01:45:42;;;;;;;25.27;11.80;;;8.20;99.90;;;;;;5013190;28;20052;-84
2021/05/28 01:48:07;;;;;;;26.00;10.85;;;8.30;99.90;;;;;;5012186;28;20120;-84
2021/05/28 01:50:45;;;;;;;26.83;12.82;;;8.30;99.90;;;;;;5011753;28;20100;-84
2021/05/28 01:53:20;;;;;;;34.80;14.70;;;8.40;99.90;;;;;;5013499;28;20022;-84
2021/05/28 01:55:46;;;;;;;44.25;16.95;;;8.50;99.90;;;;;;5012988;28;20443;-84
2021/05/28 01:58:14;;;;;;;35.58;17.60;;;8.50;99.90;;;;;;5011822;28;20061;-84
2021/05/28 02:00:40;;;;;;;39.95;17.42;;;8.60;99.90;;;;;;5012195;28;20026;-84
2021/05/28 02:03:06;;;;;;;40.22;19.30;;;8.70;99.90;;;;;;5012298;28;20026;-84
2021/05/28 02:05:33;;;;;;;44.85;20.95;;;8.70;99.90;;;;;;5012522;28;20030;-84
2021/05/28 02:07:59;;;;;;;41.28;20.02;;;8.70;99.90;;;;;;5013119;28;20026;-83
2021/05/28 02:10:25;;;;;;;39.53;19.60;;;8.70;99.90;;;;;;5011843;28;20037;-84
2021/05/28 02:12:52;;;;;;;44.20;20.98;;;8.80;99.90;;;;;;5013211;28;20022;-83
2021/05/28 02:15:18;;;;;;;36.20;21.40;;;8.80;99.90;;;;;;5011238;28;20022;-83
2021/05/28 02:17:44;;;;;;;42.42;21.58;;;8.80;99.90;;;;;;5012874;28;20569;-84
2021/05/28 02:20:10;;;;;;;40.10;20.88;;;8.80;99.90;;;;;;5012658;28;20026;-83
2021/05/28 02:22:36;;;;;;;37.83;22.25;;;8.90;99.90;;;;;;5011014;28;20172;-83
2021/05/28 02:25:03;;;;;;;44.80;22.38;;;8.90;99.90;;;;;;5011391;28;20104;-84
2021/05/28 02:27:28;;;;;;;46.85;22.42;;;9.00;99.90;;;;;;5011086;28;20025;-84
2021/05/28 02:29:54;;;;;;;44.30;23.88;;;8.90;99.90;;;;;;5012767;28;20402;-84
2021/05/28 02:32:20;;;;;;;39.00;23.25;;;8.90;99.90;;;;;;5011498;28;20048;-83
2021/05/28 02:34:45;;;;;;;37.63;24.00;;;8.90;99.90;;;;;;5012230;28;20026;-83
2021/05/28 02:37:11;;;;;;;39.47;22.25;;;8.80;99.90;;;;;;5011258;28;20038;-84
2021/05/28 02:39:36;;;;;;;46.08;22.98;;;8.90;99.90;;;;;;5011412;28;20025;-83
2021/05/28 02:42:02;;;;;;;37.72;22.58;;;8.90;99.90;;;;;;5013341;28;20029;-84
2021/05/28 02:44:28;;;;;;;36.58;22.38;;;8.80;99.90;;;;;;5011143;28;20025;-83
2021/05/28 02:46:53;;;;;;;39.40;23.48;;;8.80;99.90;;;;;;5012382;28;20096;-84
2021/05/28 02:49:19;;;;;;;41.58;25.13;;;8.80;99.90;;;;;;5012438;28;20065;-84
2021/05/28 02:51:44;;;;;;;41.45;21.48;;;8.80;99.90;;;;;;5010690;28;20034;-85
2021/05/28 02:54:10;;;;;;;52.35;25.08;;;8.70;99.90;;;;;;5012247;28;20033;-84
2021/05/28 02:56:35;;;;;;;57.00;25.52;;;8.70;99.90;;;;;;5013822;28;20394;-84
2021/05/28 02:59:01;;;;;;;50.83;26.17;;;8.70;99.90;;;;;;5012356;28;20030;-84
2021/05/28 03:01:27;;;;;;;49.78;27.40;;;8.70;99.90;;;;;;5011127;28;20030;-84
2021/05/28 03:03:52;;;;;;;52.60;28.13;;;8.80;99.90;;;;;;5012084;28;20571;-84
2021/05/28 03:06:18;;;;;;;54.17;27.08;;;8.70;99.90;;;;;;5010668;28;20030;-85
2021/05/28 03:08:43;;;;;;;50.65;25.38;;;8.70;99.90;;;;;;5011905;28;20030;-84
2021/05/28 03:11:09;;;;;;;41.08;25.23;;;8.80;99.90;;;;;;5010657;28;20026;-85
2021/05/28 03:13:34;;;;;;;48.53;25.05;;;8.70;99.90;;;;;;5010896;28;20037;-84
2021/05/28 03:16:00;;;;;;;52.28;25.85;;;8.70;99.90;;;;;;5010435;28;20542;-85
2021/05/28 03:18:34;;;;;;;53.15;25.17;;;8.80;99.90;;;;;;5012161;28;20406;-85
2021/05/28 03:23:43;;;;;;;40.10;22.52;;;8.80;99.90;;;;;;5012363;28;19912;-84
2021/05/28 03:26:09;;;;;;;49.95;24.77;;;8.80;99.90;;;;;;5011550;28;20404;-85
2021/05/28 03:28:35;;;;;;;47.53;24.70;;;8.80;99.90;;;;;;5010799;28;20022;-84
2021/05/28 03:31:00;;;;;;;48.13;23.85;;;8.90;99.90;;;;;;5010793;28;20113;-84
2021/05/28 03:33:26;;;;;;;45.88;23.25;;;8.90;99.90;;;;;;5012022;28;20022;-84
2021/05/28 03:35:51;;;;;;;51.15;26.02;;;8.90;99.90;;;;;;5011346;28;20030;-84
2021/05/28 03:38:17;;;;;;;46.90;23.90;;;9.00;99.90;;;;;;5011990;28;20026;-85
2021/05/28 03:40:43;;;;;;;42.90;22.42;;;8.90;99.90;;;;;;5011969;28;20029;-85
2021/05/28 03:43:08;;;;;;;39.55;22.08;;;8.90;99.90;;;;;;5010773;28;20040;-84
2021/05/28 03:45:34;;;;;;;46.67;23.42;;;9.00;99.90;;;;;;5011258;28;20030;-85
2021/05/28 03:47:59;;;;;;;52.78;22.77;;;9.20;99.90;;;;;;5011874;28;20022;-85
2021/05/28 03:50:25;;;;;;;41.92;21.65;;;9.00;99.90;;;;;;5010268;28;20030;-84
2021/05/28 03:52:50;;;;;;;60.20;22.95;;;9.00;99.90;;;;;;5010661;28;20076;-84
2021/05/28 03:55:16;;;;;;;52.45;22.05;;;9.00;99.90;;;;;;5010119;28;20120;-84
2021/05/28 03:57:41;;;;;;;37.60;21.90;;;9.10;99.90;;;;;;5011727;28;20100;-84
2021/05/28 04:00:08;;;;;;;55.28;22.70;;;9.10;99.90;;;;;;5011886;28;20402;-84
2021/05/28 04:02:33;;;;;;;45.38;20.48;;;9.10;99.90;;;;;;5011660;28;20099;-84
2021/05/28 04:04:59;;;;;;;42.63;19.25;;;9.10;99.90;;;;;;5011221;28;20540;-84
2021/05/28 04:07:27;;;;;;;44.42;20.58;;;9.10;99.90;;;;;;5011680;28;20478;-84
2021/05/28 04:09:52;;;;;;;50.35;21.00;;;9.10;99.90;;;;;;5010476;28;20025;-84
2021/05/28 04:12:18;;;;;;;41.20;20.42;;;9.10;99.90;;;;;;5011655;28;20463;-84
2021/05/28 04:14:44;;;;;;;40.33;19.65;;;9.10;99.90;;;;;;5011352;28;20089;-84
2021/05/28 04:17:09;;;;;;;48.35;20.75;;;9.20;99.90;;;;;;5010266;28;20486;-84
2021/05/28 04:19:35;;;;;;;55.85;22.83;;;9.20;99.90;;;;;;5010141;28;20469;-85
2021/05/28 04:22:00;;;;;;;38.42;17.50;;;9.30;99.90;;;;;;5014549;28;20495;-85
2021/05/28 04:24:26;;;;;;;34.95;18.05;;;9.30;99.90;;;;;;5013689;28;20060;-84
2021/05/28 04:26:51;;;;;;;38.67;18.25;;;9.30;99.90;;;;;;5013814;28;20030;-84
2021/05/28 04:29:19;;;;;;;43.38;18.75;;;9.30;99.90;;;;;;5013794;28;20121;-84
2021/05/28 04:31:45;;;;;;;34.20;16.02;;;9.30;99.90;;;;;;5013775;28;20405;-84
2021/05/28 04:34:10;;;;;;;35.13;19.23;;;9.30;99.90;;;;;;5014768;28;20022;-85
2021/05/28 04:36:36;;;;;;;70.25;30.83;;;9.40;99.90;;;;;;5014600;28;20029;-85
2021/05/28 04:39:02;;;;;;;56.08;21.45;;;9.30;99.90;;;;;;5013643;28;20021;-84
2021/05/28 04:41:28;;;;;;;46.40;18.58;;;9.40;99.90;;;;;;5014868;28;20037;-84
2021/05/28 04:43:53;;;;;;;54.67;26.48;;;9.40;99.90;;;;;;5014628;28;20026;-84
2021/05/28 04:46:19;;;;;;;34.80;16.65;;;9.40;99.90;;;;;;5013195;28;20038;-85
2021/05/28 04:48:44;;;;;;;26.85;12.75;;;9.40;99.90;;;;;;5013499;28;20034;-84
2021/05/28 04:51:10;;;;;;;46.25;22.52;;;9.40;99.90;;;;;;5014430;28;20034;-84
2021/05/28 04:53:35;;;;;;;99.65;46.83;;;9.40;99.90;;;;;;5013265;28;20018;-85
2021/05/28 04:56:01;;;;;;;107.65;47.47;;;9.40;99.90;;;;;;5014079;28;20525;-84
2021/05/28 04:58:27;;;;;;;50.47;21.88;;;9.40;99.90;;;;;;5014992;28;20010;-84
2021/05/28 05:00:52;;;;;;;78.00;42.97;;;9.30;99.90;;;;;;5014534;28;20056;-85
2021/05/28 05:03:18;;;;;;;57.08;32.75;;;9.30;99.90;;;;;;5014357;28;20105;-85
2021/05/28 05:05:43;;;;;;;43.10;21.23;;;9.30;99.90;;;;;;5013917;28;20033;-84
2021/05/28 05:08:09;;;;;;;83.25;38.92;;;9.40;99.90;;;;;;5014171;28;20064;-84
2021/05/28 05:10:35;;;;;;;49.15;21.10;;;9.40;99.90;;;;;;5014278;28;20132;-84
2021/05/28 05:13:00;;;;;;;33.60;20.92;;;9.40;99.90;;;;;;5013182;28;20498;-85
2021/05/28 05:15:26;;;;;;;49.50;24.90;;;9.50;99.90;;;;;;5012576;28;20022;-85
2021/05/28 05:17:51;;;;;;;29.83;15.30;;;9.60;99.90;;;;;;5012769;28;20034;-84
2021/05/28 05:20:17;;;;;;;45.70;25.08;;;9.60;99.90;;;;;;5012717;28;20053;-84
2021/05/28 05:22:42;;;;;;;31.88;16.33;;;9.70;99.90;;;;;;5012884;28;20367;-85
2021/05/28 05:25:08;;;;;;;27.02;15.48;;;9.80;99.90;;;;;;5012624;28;20029;-85
2021/05/28 05:27:34;;;;;;;68.15;29.75;;;9.90;99.90;;;;;;5013358;28;20033;-84
2021/05/28 05:30:00;;;;;;;49.88;22.10;;;10.00;99.90;;;;;;5012781;28;20026;-84
2021/05/28 05:32:26;;;;;;;32.30;17.27;;;10.10;99.90;;;;;;5011973;28;20478;-85
2021/05/28 05:34:54;;;;;;;38.22;17.25;;;10.20;99.90;;;;;;5013480;28;20069;-84
2021/05/28 05:37:20;;;;;;;36.90;18.60;;;10.30;99.90;;;;;;5012581;28;20034;-85
2021/05/28 05:39:46;;;;;;;34.45;15.90;;;10.40;99.90;;;;;;5012575;28;20036;-85
2021/05/28 05:42:11;;;;;;;34.85;16.05;;;10.50;99.90;;;;;;5012436;28;20545;-85
2021/05/28 05:44:37;;;;;;;39.85;15.68;;;10.60;99.90;;;;;;5013572;28;20033;-85
2021/05/28 05:47:02;;;;;;;42.35;19.05;;;10.70;99.90;;;;;;5012169;28;20033;-85
2021/05/28 05:49:28;;;;;;;37.08;16.90;;;10.70;99.90;;;;;;5013425;28;20040;-86
2021/05/28 05:51:53;;;;;;;50.25;19.33;;;10.70;99.90;;;;;;5012283;28;20482;-85
2021/05/28 05:54:19;;;;;;;36.40;15.88;;;10.70;99.90;;;;;;5012074;28;20018;-85
2021/05/28 05:56:45;;;;;;;36.80;13.68;;;10.80;99.90;;;;;;5011894;28;20099;-85
2021/05/28 05:59:10;;;;;;;42.40;12.60;;;10.70;99.90;;;;;;5012269;28;20022;-85
2021/05/28 06:01:36;;;;;;;31.42;11.85;;;10.70;99.90;;;;;;5010352;28;20034;-85
2021/05/28 06:04:02;;;;;;;33.85;13.05;;;10.80;99.90;;;;;;5012976;28;20052;-85
2021/05/28 06:06:27;;;;;;;29.35;14.27;;;10.80;99.90;;;;;;5012642;28;20033;-85
2021/05/28 06:08:53;;;;;;;40.13;16.05;;;10.80;99.90;;;;;;5011847;28;20607;-85
2021/05/28 06:11:19;;;;;;;29.15;11.45;;;10.80;99.90;;;;;;5011745;28;20116;-85
2021/05/28 06:13:45;;;;;;;32.70;12.75;;;10.90;99.90;;;;;;5011600;28;20383;-84
2021/05/28 06:16:11;;;;;;;36.08;11.25;;;11.00;99.90;;;;;;5011648;28;20036;-85
2021/05/28 06:18:36;;;;;;;36.88;12.88;;;11.10;99.90;;;;;;5011817;28;20030;-86
2021/05/28 06:21:02;;;;;;;52.00;17.40;;;11.20;99.90;;;;;;5011417;28;20033;-85
2021/05/28 06:23:28;;;;;;;41.60;13.23;;;11.40;99.90;;;;;;5011678;28;20505;-86
2021/05/28 06:25:53;;;;;;;29.98;9.32;;;11.60;99.90;;;;;;5012358;28;20029;-85
2021/05/28 06:28:19;;;;;;;42.75;10.50;;;11.80;99.90;;;;;;5011562;28;20030;-86
2021/05/28 06:30:45;;;;;;;33.78;9.23;;;11.90;99.90;;;;;;5011386;28;20061;-85
2021/05/28 06:33:11;;;;;;;31.55;8.85;;;12.00;99.90;;;;;;5012823;28;20029;-84
2021/05/28 06:35:38;;;;;;;39.08;9.35;;;12.00;99.90;;;;;;5011215;28;20038;-84
2021/05/28 06:38:04;;;;;;;32.70;7.80;;;12.10;99.90;;;;;;5011343;28;20446;-85
2021/05/28 06:40:30;;;;;;;29.08;8.20;;;12.00;99.90;;;;;;5011496;28;20018;-86
2021/05/28 06:42:56;;;;;;;18.75;6.35;;;12.00;99.90;;;;;;5011385;28;20022;-85
2021/05/28 06:45:22;;;;;;;34.53;7.45;;;11.90;99.90;;;;;;5011320;28;20026;-86
2021/05/28 06:47:48;;;;;;;34.08;8.05;;;11.80;99.90;;;;;;5012309;28;20164;-85
2021/05/28 06:50:16;;;;;;;38.78;7.45;;;11.80;99.90;;;;;;4995112;28;20495;-86
2021/05/28 06:52:43;;;;;;;30.08;8.10;;;11.60;99.90;;;;;;4992871;28;20502;-85
2021/05/28 06:55:09;;;;;;;25.98;7.57;;;11.50;99.90;;;;;;4993292;28;20053;-85
2021/05/28 06:57:36;;;;;;;25.85;7.25;;;11.70;99.90;;;;;;5012025;28;20168;-84
2021/05/28 07:00:05;;;;;;;23.95;5.95;;;11.70;99.90;;;;;;5011319;28;20026;-86
2021/05/28 07:02:30;;;;;;;31.00;8.68;;;12.00;99.90;;;;;;5011288;28;20569;-85
2021/05/28 07:04:56;;;;;;;21.08;5.45;;;12.40;99.90;;;;;;5010664;28;20109;-86
2021/05/28 07:07:22;;;;;;;29.90;7.53;;;12.60;99.90;;;;;;5011216;28;20030;-85
2021/05/28 07:09:48;;;;;;;26.17;5.97;;;12.90;99.90;;;;;;5012321;28;20057;-85
2021/05/28 07:12:13;;;;;;;24.35;6.63;;;13.10;99.90;;;;;;5011240;28;20032;-85
2021/05/28 07:14:39;;;;;;;25.30;7.00;;;13.10;99.90;;;;;;5010811;28;20026;-85
2021/05/28 07:17:05;;;;;;;28.75;6.65;;;13.50;99.90;;;;;;5005359;28;20154;-88
2021/05/28 07:19:31;;;;;;;30.45;6.55;;;13.70;99.90;;;;;;5006240;28;20466;-86
2021/05/28 07:21:57;;;;;;;32.22;6.78;;;13.70;99.90;;;;;;5007046;28;20084;-86
2021/05/28 07:24:22;;;;;;;22.35;6.38;;;13.70;99.90;;;;;;5011717;28;20026;-86
2021/05/28 07:26:48;;;;;;;30.90;6.20;;;13.50;99.90;;;;;;5011690;28;20030;-84
2021/05/28 07:29:14;;;;;;;27.83;8.05;;;13.30;99.90;;;;;;5010293;28;20030;-84
2021/05/28 07:31:40;;;;;;;24.50;7.25;;;13.30;99.90;;;;;;5010814;28;20026;-84
2021/05/28 07:34:05;;;;;;;25.63;5.57;;;13.30;99.90;;;;;;5011715;28;20032;-84
2021/05/28 07:36:31;;;;;;;28.85;6.30;;;13.60;99.90;;;;;;5011489;28;20029;-84
2021/05/28 07:38:56;;;;;;;30.63;6.25;;;13.90;99.90;;;;;;5010811;28;20504;-84
2021/05/28 07:41:22;;;;;;;29.70;10.30;;;14.20;99.90;;;;;;5011975;28;20508;-85
2021/05/28 07:43:48;;;;;;;25.20;5.68;;;14.30;99.90;;;;;;5010569;28;20022;-84
2021/05/28 07:46:14;;;;;;;32.33;6.68;;;14.50;99.90;;;;;;5010294;28;20025;-84
2021/05/28 07:48:40;;;;;;;28.90;5.97;;;14.70;99.90;;;;;;5010445;28;20033;-84
2021/05/28 07:51:05;;;;;;;21.80;5.65;;;15.00;99.90;;;;;;5010178;28;20026;-84
2021/05/28 07:53:31;;;;;;;20.73;5.22;;;15.30;99.90;;;;;;5011715;28;20391;-83
2021/05/28 07:55:59;;;;;;;25.25;5.00;;;15.30;99.90;;;;;;5011586;28;20022;-84
2021/05/28 07:58:26;;;;;;;49.20;17.77;;;15.40;99.90;;;;;;5015654;28;20449;-84
2021/05/28 08:00:52;;;;;;;30.70;7.50;;;15.10;99.90;;;;;;5015521;28;20461;-84
2021/05/28 08:03:17;;;;;;;23.05;4.90;;;14.60;99.90;;;;;;5012841;28;20034;-84
2021/05/28 08:05:45;;;;;;;23.00;6.20;;;14.70;99.90;;;;;;5014986;28;20029;-85
2021/05/28 08:08:11;;;;;;;18.98;4.47;;;14.70;99.90;;;;;;5014100;28;20021;-85
2021/05/28 08:10:37;;;;;;;24.15;4.60;;;15.10;99.90;;;;;;5015165;28;20080;-86
2021/05/28 08:13:03;;;;;;;27.70;6.28;;;15.30;99.90;;;;;;5015230;28;20068;-84
2021/05/28 08:15:31;;;;;;;30.40;4.72;;;15.30;99.90;;;;;;5030402;28;20029;-84
2021/05/28 08:17:57;;;;;;;16.48;4.18;;;15.50;99.90;;;;;;5013600;28;20398;-84
2021/05/28 08:20:22;;;;;;;26.02;5.15;;;15.50;99.90;;;;;;5013869;28;20026;-85
2021/05/28 08:22:48;;;;;;;18.15;4.18;;;15.30;99.90;;;;;;5015165;28;20022;-85
2021/05/28 08:25:14;;;;;;;20.60;3.47;;;15.00;99.90;;;;;;5014871;28;20439;-84
2021/05/28 08:27:40;;;;;;;16.50;5.32;;;14.90;99.90;;;;;;5014054;28;20025;-84
2021/05/28 08:30:07;;;;;;;16.10;3.88;;;14.70;99.90;;;;;;5014753;28;20054;-84
2021/05/28 08:32:32;;;;;;;21.17;5.32;;;14.80;99.90;;;;;;5011431;28;20034;-84
2021/05/28 08:34:58;;;;;;;23.52;4.68;;;14.90;99.90;;;;;;5013485;28;20026;-83
2021/05/28 08:37:23;;;;;;;22.10;4.97;;;15.00;99.90;;;;;;5014763;28;20092;-83
2021/05/28 08:39:49;;;;;;;22.23;4.30;;;14.70;99.90;;;;;;5014749;28;20050;-83
2021/05/28 08:42:20;;;;;;;22.77;4.75;;;14.40;99.90;;;;;;5014838;28;20405;-84
2021/05/28 08:44:46;;;;;;;24.20;5.00;;;14.30;99.90;;;;;;5012969;28;20087;-85
2021/05/28 08:47:13;;;;;;;32.47;5.82;;;14.30;99.90;;;;;;5012974;28;20030;-84
2021/05/28 08:49:39;;;;;;;16.35;4.28;;;14.30;99.90;;;;;;5014433;28;20498;-85
2021/05/28 08:52:05;;;;;;;25.67;5.22;;;14.30;99.90;;;;;;5013367;28;20033;-85
2021/05/28 08:54:32;;;;;;;19.98;4.65;;;14.50;99.90;;;;;;5012610;28;20022;-85
2021/05/28 08:56:57;;;;;;;27.48;6.38;;;14.60;99.90;;;;;;5013233;28;20033;-85
2021/05/28 08:59:23;;;;;;;26.30;5.68;;;14.80;99.90;;;;;;5013199;28;20022;-84
2021/05/28 09:01:49;;;;;;;29.38;4.70;;;14.90;99.90;;;;;;5014300;28;20026;-84
2021/05/28 09:04:14;;;;;;;22.65;5.57;;;15.00;99.90;;;;;;5014035;28;20109;-84
2021/05/28 09:06:44;;;;;;;26.20;5.97;;;14.80;99.90;;;;;;5012409;28;20033;-85
2021/05/28 09:09:11;;;;;;;35.72;5.35;;;14.50;99.90;;;;;;5014352;28;20030;-84
2021/05/28 09:11:56;;;;;;;23.42;5.53;;;14.60;99.90;;;;;;5012891;28;20061;-84
2021/05/28 09:14:43;;;;;;;20.05;4.85;;;14.70;99.90;;;;;;5014059;28;20415;-84
2021/05/28 09:17:11;;;;;;;24.58;5.85;;;14.50;99.90;;;;;;5014359;28;20048;-85
2021/05/28 09:19:37;;;;;;;23.23;4.97;;;14.60;99.90;;;;;;5012576;28;20030;-84
2021/05/28 09:22:08;;;;;;;17.90;5.90;;;14.90;99.90;;;;;;5012875;28;20033;-84
2021/05/28 09:24:42;;;;;;;28.88;7.03;;;14.80;99.90;;;;;;5013299;28;20100;-85
2021/05/28 09:27:26;;;;;;;24.40;5.72;;;14.70;99.90;;;;;;5012634;28;20053;-86
2021/05/28 09:30:11;;;;;;;25.63;6.15;;;14.80;99.90;;;;;;5013954;28;20026;-86
2021/05/28 09:32:39;;;;;;;24.65;7.22;;;14.40;99.90;;;;;;5013554;28;20038;-85
2021/05/28 09:35:09;;;;;;;30.13;6.22;;;14.20;99.90;;;;;;5012166;28;20425;-85
2021/05/28 09:37:40;;;;;;;31.23;7.25;;;14.10;99.90;;;;;;5012400;28;20391;-84
2021/05/28 09:40:17;;;;;;;23.65;5.65;;;13.90;99.90;;;;;;5013780;28;20022;-85
2021/05/28 09:42:47;;;;;;;17.25;5.68;;;14.20;99.90;;;;;;5012501;28;20022;-85
2021/05/28 09:45:39;;;;;;;24.27;5.47;;;14.20;99.90;;;;;;5013447;28;20025;-85
2021/05/28 09:48:25;;;;;;;26.50;6.45;;;14.20;99.90;;;;;;5011423;28;20045;-85
2021/05/28 09:50:54;;;;;;;25.98;6.22;;;14.40;99.90;;;;;;5012374;28;20124;-84
2021/05/28 09:53:32;;;;;;;20.77;5.93;;;14.40;99.90;;;;;;5013163;28;20083;-85
2021/05/28 09:56:00;;;;;;;13.95;5.53;;;14.30;99.90;;;;;;5011838;28;20395;-84
2021/05/28 09:58:46;;;;;;;15.75;4.15;;;14.60;99.90;;;;;;5012155;28;20076;-85
2021/05/28 10:01:11;;;;;;;25.88;5.13;;;14.90;99.90;;;;;;5013200;28;20034;-84
2021/05/28 10:03:38;;;;;;;26.02;5.28;;;15.00;99.90;;;;;;5011844;28;20414;-85
2021/05/28 10:06:04;;;;;;;26.92;5.38;;;15.10;99.90;;;;;;5011807;28;20026;-85
2021/05/28 10:08:30;;;;;;;26.25;6.28;;;15.10;99.90;;;;;;5013212;28;20564;-84
2021/05/28 10:10:57;;;;;;;50.22;6.68;;;15.50;99.90;;;;;;5012936;28;20114;-85
2021/05/28 10:13:28;;;;;;;18.85;5.85;;;15.80;99.90;;;;;;5011756;28;20041;-86
2021/05/28 10:15:55;;;;;;;27.00;6.03;;;15.70;99.90;;;;;;5011996;28;20436;-84
2021/05/28 10:18:23;;;;;;;16.08;5.30;;;15.50;99.90;;;;;;5011314;28;20026;-85
2021/05/28 10:20:53;;;;;;;25.08;5.43;;;15.50;99.90;;;;;;5011561;28;20032;-85
2021/05/28 10:23:20;;;;;;;24.77;4.50;;;15.30;99.90;;;;;;5011495;28;20026;-84
2021/05/28 10:25:46;;;;;;;16.20;5.13;;;15.20;99.90;;;;;;5012876;28;20026;-87
2021/05/28 10:28:21;;;;;;;17.73;6.10;;;15.10;99.90;;;;;;5011483;28;20487;-85
2021/05/28 10:30:49;;;;;;;19.30;5.35;;;15.30;99.90;;;;;;5011524;28;20033;-84
2021/05/28 10:33:29;;;;;;;21.10;5.25;;;15.50;99.90;;;;;;5007106;28;20072;-86
2021/05/28 10:35:57;;;;;;;18.08;4.45;;;15.50;99.90;;;;;;5006581;28;20109;-87
2021/05/28 10:38:44;;;;;;;13.00;3.90;;;15.80;99.90;;;;;;5009042;28;20037;-86
2021/05/28 10:41:12;;;;;;;15.82;4.70;;;15.60;99.90;;;;;;5008766;28;20033;-90
2021/05/28 10:44:02;;;;;;;16.00;4.45;;;15.50;99.90;;;;;;5008926;28;20029;-88
2021/05/28 10:46:28;;;;;;;21.58;4.75;;;15.30;99.90;;;;;;5009304;28;20114;-88
2021/05/28 10:49:08;;;;;;;14.80;4.38;;;15.40;99.90;;;;;;5009511;28;20026;-85
2021/05/28 10:51:34;;;;;;;15.13;4.50;;;15.50;99.90;;;;;;5000519;28;20034;-86
2021/05/28 10:53:59;;;;;;;15.25;4.25;;;15.40;99.90;;;;;;5006723;28;20482;-85
2021/05/28 10:56:27;;;;;;;17.15;4.05;;;15.40;99.90;;;;;;5008640;28;20036;-85
2021/05/28 10:58:57;;;;;;;13.90;4.60;;;15.50;99.90;;;;;;5008634;28;20026;-86
2021/05/28 11:01:32;;;;;;;12.52;4.13;;;15.60;99.90;;;;;;5007856;28;20174;-86
2021/05/28 11:04:08;;;;;;;21.92;5.40;;;15.50;99.90;;;;;;5001540;28;20505;-86
2021/05/28 11:06:54;;;;;;;14.95;4.03;;;15.60;99.90;;;;;;5007531;28;20121;-85
2021/05/28 11:09:34;;;;;;;17.30;4.47;;;15.50;99.90;;;;;;5016885;28;20033;-86
2021/05/28 11:12:00;;;;;;;13.48;4.80;;;15.20;99.90;;;;;;5006989;28;20029;-85
2021/05/28 11:14:27;;;;;;;11.73;4.53;;;15.40;99.90;;;;;;5007653;28;20497;-86
2021/05/28 11:16:53;;;;;;;19.33;4.55;;;15.30;99.90;;;;;;5006344;28;20028;-86
2021/05/28 11:19:22;;;;;;;20.45;5.68;;;14.90;99.90;;;;;;5008787;28;20030;-85
2021/05/28 11:21:58;;;;;;;20.27;4.68;;;14.80;99.90;;;;;;5008150;28;20022;-86
2021/05/28 11:24:47;;;;;;;12.55;5.00;;;14.60;99.90;;;;;;5008846;28;20022;-86
2021/05/28 11:27:13;;;;;;;17.38;5.13;;;14.70;99.90;;;;;;5010140;28;20082;-83
2021/05/28 11:29:39;;;;;;;17.63;5.18;;;15.10;99.90;;;;;;5011748;28;20486;-84
2021/05/28 11:32:30;;;;;;;20.45;4.57;;;15.30;99.90;;;;;;5014189;28;20040;-84
2021/05/28 11:35:15;;;;;;;17.42;4.50;;;15.30;99.90;;;;;;5000157;28;20022;-85
2021/05/28 11:37:41;;;;;;;21.80;5.30;;;15.10;99.90;;;;;;5015867;28;20026;-85
2021/05/28 11:40:17;;;;;;;17.80;4.82;;;15.50;99.90;;;;;;5014573;28;20025;-85
2021/05/28 11:42:45;;;;;;;16.60;4.40;;;15.50;99.90;;;;;;5014518;28;20026;-85
2021/05/28 11:45:12;;;;;;;13.77;4.78;;;15.50;99.90;;;;;;4994950;28;20169;-85
2021/05/28 11:47:38;;;;;;;11.93;4.15;;;15.40;99.90;;;;;;4998463;28;20027;-84
2021/05/28 11:50:08;;;;;;;15.88;4.70;;;15.00;99.90;;;;;;5013847;28;20040;-84
2021/05/28 11:52:33;;;;;;;12.07;3.92;;;14.80;99.90;;;;;;5030522;28;20025;-83
2021/05/28 11:55:08;;;;;;;17.02;4.90;;;14.70;99.90;;;;;;5015359;28;20463;-83
2021/05/28 11:57:34;;;;;;;11.88;4.07;;;14.90;99.90;;;;;;5014186;28;20018;-83
2021/05/28 12:00:00;;;;;;;10.32;4.43;;;15.10;99.90;;;;;;5014277;28;20037;-83
2021/05/28 12:02:40;;;;;;;13.60;4.85;;;15.30;99.90;;;;;;5030756;28;20453;-83
2021/05/28 12:05:30;;;;;;;11.57;4.65;;;15.00;99.90;;;;;;5014052;28;20403;-84
2021/05/28 12:08:13;;;;;;;17.80;4.60;;;14.70;99.90;;;;;;5015097;28;20029;-83
2021/05/28 12:10:45;;;;;;;16.27;4.88;;;14.30;99.90;;;;;;5029693;28;20405;-83
2021/05/28 12:13:14;;;;;;;20.52;5.07;;;14.30;99.90;;;;;;5015033;28;20026;-84
2021/05/28 12:15:54;;;;;;;13.13;4.63;;;14.10;99.90;;;;;;5013950;28;20022;-83
2021/05/28 12:18:32;;;;;;;19.65;6.78;;;14.10;99.90;;;;;;5010925;28;20472;-83
2021/05/28 12:21:06;;;;;;;43.63;13.90;;;14.10;99.90;;;;;;5009740;28;20054;-84
2021/05/28 12:23:32;;;;;;;;;;;14.20;99.90;;;;;;5010816;28;20152;-85
2021/05/28 12:26:02;;;;;;;23.95;5.25;;;14.30;99.90;;;;;;5010217;28;20027;-84
2021/05/28 12:28:29;;;;;;;16.33;5.88;;;14.20;99.90;;;;;;5010744;28;20407;-84
2021/05/28 12:30:58;;;;;;;21.88;6.38;;;14.20;99.90;;;;;;5009582;28;20037;-83
2021/05/28 12:33:28;;;;;;;15.18;6.38;;;14.30;99.90;;;;;;5009379;28;20018;-83
2021/05/28 12:35:56;;;;;;;14.93;5.05;;;14.50;99.90;;;;;;5012600;28;20029;-86
2021/05/28 12:38:24;;;;;;;21.63;4.88;;;14.70;99.90;;;;;;5015101;28;20033;-85
2021/05/28 12:40:51;;;;;;;16.75;6.60;;;14.50;99.90;;;;;;5029985;28;20202;-85
2021/05/28 12:43:27;;;;;;;16.08;5.97;;;14.60;99.90;;;;;;5014885;28;20036;-85